createdAt,value
2019-04-03T00:00:47.791Z,14.07
2019-04-03T00:03:17.092Z,13.98
2019-04-03T00:05:46.610Z,13.78
2019-04-03T00:08:16.042Z,15.60
2019-04-03T00:10:46.420Z,14.43
2019-04-03T00:13:15.731Z,13.88
2019-04-03T00:15:45.273Z,15.50
2019-04-03T00:18:16.588Z,14.07
2019-04-03T00:20:48.255Z,14.05
2019-04-03T00:23:16.893Z,13.68
2019-04-03T00:25:46.503Z,16.07
2019-04-03T00:28:15.867Z,14.78
2019-04-03T00:30:45.563Z,15.93
2019-04-03T00:33:15.059Z,14.35
2019-04-03T00:35:44.409Z,15.05
2019-04-03T00:38:13.983Z,14.53
2019-04-03T00:40:43.530Z,13.43
2019-04-03T00:43:12.837Z,15.55
2019-04-03T00:45:42.165Z,14.90
2019-04-03T00:48:11.556Z,14.83
2019-04-03T00:50:41.058Z,17.35
2019-04-03T00:53:10.422Z,14.43
2019-04-03T00:55:39.800Z,14.97
2019-04-03T00:58:37.769Z,15.87
2019-04-03T01:01:11.704Z,14.80
2019-04-03T01:03:44.794Z,13.08
2019-04-03T01:06:14.229Z,12.03
2019-04-03T01:08:43.642Z,14.27
2019-04-03T01:11:12.934Z,15.20
2019-04-03T01:13:42.435Z,15.03
2019-04-03T01:16:11.977Z,16.62
2019-04-03T01:18:41.098Z,15.20
2019-04-03T01:21:10.438Z,14.55
2019-04-03T01:23:40.009Z,13.68
2019-04-03T01:26:10.302Z,14.65
2019-04-03T01:31:14.359Z,13.53
2019-04-03T01:33:43.199Z,12.60
2019-04-03T01:36:12.595Z,13.68
2019-04-03T01:38:41.986Z,14.35
2019-04-03T01:41:11.289Z,13.62
2019-04-03T01:43:40.486Z,13.60
2019-04-03T01:46:09.823Z,13.45
2019-04-03T01:48:39.239Z,15.17
2019-04-03T01:51:08.559Z,14.13
2019-04-03T01:53:37.870Z,15.57
2019-04-03T01:56:09.400Z,16.30
2019-04-03T01:58:38.949Z,17.70
2019-04-03T02:01:08.590Z,16.35
2019-04-03T02:03:42.025Z,14.75
2019-04-03T02:06:13.299Z,12.50
2019-04-03T02:08:44.274Z,13.22
2019-04-03T02:11:13.626Z,15.20
2019-04-03T02:13:43.072Z,15.48
2019-04-03T02:16:12.369Z,15.63
2019-04-03T02:18:41.906Z,14.20
2019-04-03T02:21:11.478Z,14.33
2019-04-03T02:23:40.937Z,14.55
2019-04-03T02:26:10.237Z,13.72
2019-04-03T02:28:39.606Z,15.37
2019-04-03T02:31:09.103Z,14.60
2019-04-03T02:33:40.800Z,15.45
2019-04-03T02:36:12.482Z,14.45
2019-04-03T02:38:41.364Z,15.25
2019-04-03T02:41:10.649Z,14.93
2019-04-03T02:43:39.954Z,15.80
2019-04-03T02:46:09.302Z,16.23
2019-04-03T02:48:38.917Z,15.58
2019-04-03T02:51:08.456Z,16.95
2019-04-03T02:53:38.232Z,16.35
2019-04-03T02:56:09.486Z,16.37
2019-04-03T02:58:38.553Z,18.55
2019-04-03T03:01:08.005Z,18.87
2019-04-03T03:03:37.482Z,14.70
2019-04-03T03:06:07.868Z,16.10
2019-04-03T03:08:40.230Z,16.48
2019-04-03T03:11:08.729Z,16.62
2019-04-03T03:13:39.443Z,14.05
2019-04-03T03:16:09.759Z,15.20
2019-04-03T03:21:11.807Z,19.75
2019-04-03T03:23:41.496Z,21.57
2019-04-03T03:26:11.123Z,19.23
2019-04-03T03:28:45.703Z,17.98
2019-04-03T03:31:14.239Z,16.12
2019-04-03T03:33:45.134Z,16.32
2019-04-03T03:36:20.087Z,14.40
2019-04-03T03:38:46.683Z,15.20
2019-04-03T03:41:16.017Z,16.97
2019-04-03T03:43:46.295Z,15.83
2019-04-03T03:46:16.103Z,16.97
2019-04-03T03:48:45.878Z,15.93
2019-04-03T03:51:15.817Z,16.35
2019-04-03T03:53:47.110Z,16.27
2019-04-03T03:56:18.748Z,18.17
2019-04-03T03:58:48.829Z,17.95
2019-04-03T04:01:18.801Z,18.95
2019-04-03T04:03:48.951Z,15.60
2019-04-03T04:06:19.239Z,19.42
2019-04-03T04:08:49.007Z,17.05
2019-04-03T04:11:19.516Z,17.65
2019-04-03T04:16:19.109Z,17.20
2019-04-03T04:18:49.437Z,19.02
2019-04-03T04:21:19.039Z,20.43
2019-04-03T04:23:48.847Z,17.87
2019-04-03T04:26:18.314Z,18.62
2019-04-03T04:28:47.744Z,21.30
2019-04-03T04:31:17.223Z,18.50
2019-04-03T04:33:47.949Z,18.23
2019-04-03T04:36:17.754Z,19.73
2019-04-03T04:38:47.103Z,17.47
2019-04-03T04:41:16.506Z,19.57
2019-04-03T04:43:45.816Z,19.83
2019-04-03T04:46:15.031Z,20.17
2019-04-03T04:48:44.302Z,22.50
2019-04-03T04:51:13.825Z,22.50
2019-04-03T04:53:43.399Z,21.93
2019-04-03T04:56:12.609Z,21.30
2019-04-03T04:58:42.941Z,20.75
2019-04-03T05:01:13.035Z,19.12
2019-04-03T05:03:42.453Z,18.63
2019-04-03T05:06:11.913Z,20.93
2019-04-03T05:08:41.338Z,20.30
2019-04-03T05:11:10.814Z,17.42
2019-04-03T05:13:40.156Z,18.42
2019-04-03T05:16:09.816Z,19.00
2019-04-03T05:18:39.333Z,18.40
2019-04-03T05:21:08.668Z,18.35
2019-04-03T05:23:37.912Z,19.20
2019-04-03T05:26:07.221Z,19.27
2019-04-03T05:28:36.546Z,18.02
2019-04-03T05:31:07.835Z,18.20
2019-04-03T05:33:36.964Z,18.05
2019-04-03T05:36:09.312Z,22.67
2019-04-03T05:38:38.853Z,19.10
2019-04-03T05:41:08.160Z,22.60
2019-04-03T05:43:37.781Z,19.40
2019-04-03T05:46:07.359Z,18.55
2019-04-03T05:48:36.913Z,19.37
2019-04-03T05:51:06.302Z,19.32
2019-04-03T05:53:37.445Z,20.17
2019-04-03T05:56:06.648Z,20.43
2019-04-03T05:58:36.088Z,22.27
2019-04-03T06:01:06.877Z,21.40
2019-04-03T06:03:40.715Z,20.17
2019-04-03T06:06:07.492Z,21.82
2019-04-03T06:08:37.960Z,21.02
2019-04-03T06:11:08.869Z,21.93
2019-04-03T06:13:38.577Z,18.57
2019-04-03T06:16:08.113Z,21.40
2019-04-03T06:18:40.840Z,20.50
2019-04-03T06:21:10.481Z,21.20
2019-04-03T06:23:39.979Z,18.67
2019-04-03T06:26:09.468Z,22.32
2019-04-03T06:28:42.351Z,20.52
2019-04-03T06:31:10.686Z,23.50
2019-04-03T06:33:40.073Z,23.27
2019-04-03T06:36:09.746Z,26.23
2019-04-03T06:38:38.989Z,25.43
2019-04-03T06:41:09.109Z,23.70
2019-04-03T06:43:38.585Z,21.52
2019-04-03T06:46:07.960Z,23.95
2019-04-03T06:48:37.234Z,21.47
2019-04-03T06:51:06.400Z,21.90
2019-04-03T06:53:35.904Z,20.43
2019-04-03T06:56:07.672Z,20.60
2019-04-03T06:58:39.484Z,21.73
2019-04-03T07:01:07.867Z,20.48
2019-04-03T07:03:37.425Z,22.55
2019-04-03T07:06:09.910Z,21.33
2019-04-03T07:08:41.674Z,22.42
2019-04-03T07:11:22.768Z,21.70
2019-04-03T07:13:42.159Z,21.52
2019-04-03T07:16:11.662Z,21.80
2019-04-03T07:18:40.935Z,20.05
2019-04-03T07:21:12.292Z,20.77
2019-04-03T07:23:41.334Z,21.15
2019-04-03T07:26:10.684Z,20.65
2019-04-03T07:28:43.092Z,21.80
2019-04-03T07:31:12.561Z,22.37
2019-04-03T07:33:41.850Z,18.42
2019-04-03T07:36:11.779Z,19.33
2019-04-03T07:38:41.201Z,20.48
2019-04-03T07:41:10.444Z,19.87
2019-04-03T07:43:40.043Z,21.23
2019-04-03T07:46:09.542Z,21.52
2019-04-03T07:48:38.885Z,20.50
2019-04-03T07:51:08.463Z,19.50
2019-04-03T07:53:38.234Z,20.25
2019-04-03T07:56:07.812Z,19.25
2019-04-03T07:58:37.483Z,21.33
2019-04-03T08:01:09.560Z,22.37
2019-04-03T08:03:40.453Z,21.17
2019-04-03T08:06:09.979Z,20.75
2019-04-03T08:08:39.545Z,18.37
2019-04-03T08:11:09.050Z,21.12
2019-04-03T08:13:39.200Z,20.27
2019-04-03T08:16:08.687Z,21.85
2019-04-03T08:18:38.494Z,18.75
2019-04-03T08:21:07.708Z,19.17
2019-04-03T08:23:37.674Z,18.63
2019-04-03T08:26:07.247Z,17.48
2019-04-03T08:28:36.586Z,20.60
2019-04-03T08:31:06.116Z,18.93
2019-04-03T08:33:35.249Z,19.15
2019-04-03T08:36:06.833Z,21.45
2019-04-03T08:38:35.473Z,18.30
2019-04-03T08:41:04.674Z,18.62
2019-04-03T08:43:33.920Z,20.00
2019-04-03T08:46:03.218Z,20.50
2019-04-03T08:48:32.495Z,19.43
2019-04-03T08:51:03.012Z,17.93
2019-04-03T08:53:32.997Z,17.62
2019-04-03T08:56:02.269Z,18.55
2019-04-03T08:58:31.773Z,20.40
2019-04-03T09:01:03.679Z,19.60
2019-04-03T09:03:32.056Z,18.45
2019-04-03T09:06:01.376Z,17.90
2019-04-03T09:08:30.995Z,18.03
2019-04-03T09:11:00.737Z,17.98
2019-04-03T09:13:30.318Z,19.40
2019-04-03T09:16:00.372Z,16.80
2019-04-03T09:21:00.102Z,18.35
2019-04-03T09:23:32.509Z,17.05
2019-04-03T09:26:03.042Z,15.10
2019-04-03T09:28:33.197Z,15.05
2019-04-03T09:31:02.712Z,15.10
2019-04-03T09:33:32.051Z,16.40
2019-04-03T09:36:03.712Z,16.15
2019-04-03T09:38:35.287Z,16.15
2019-04-03T09:41:04.111Z,15.85
2019-04-03T09:43:33.582Z,18.05
2019-04-03T09:46:03.313Z,18.82
2019-04-03T09:48:32.644Z,14.33
2019-04-03T09:51:01.795Z,14.60
2019-04-03T09:53:31.040Z,16.05
2019-04-03T09:56:00.349Z,14.70
2019-04-03T09:58:29.724Z,16.93
2019-04-03T10:00:59.149Z,18.25
2019-04-03T10:03:30.987Z,18.23
2019-04-03T10:06:00.212Z,16.23
2019-04-03T10:08:30.336Z,13.38
2019-04-03T10:10:59.729Z,15.40
2019-04-03T10:13:29.139Z,14.75
2019-04-03T10:15:58.379Z,14.03
2019-04-03T10:18:27.462Z,14.58
2019-04-03T10:20:56.883Z,16.23
2019-04-03T10:23:28.763Z,16.12
2019-04-03T10:25:57.511Z,15.10
2019-04-03T10:28:26.778Z,13.72
2019-04-03T10:30:56.001Z,16.13
2019-04-03T10:33:25.393Z,14.50
2019-04-03T10:35:54.828Z,13.45
2019-04-03T10:38:24.201Z,15.50
2019-04-03T10:40:55.389Z,12.75
2019-04-03T10:43:24.561Z,13.58
2019-04-03T10:45:54.032Z,13.60
2019-04-03T10:48:27.758Z,13.60
2019-04-03T10:50:56.717Z,15.05
2019-04-03T10:53:26.490Z,15.85
2019-04-03T10:55:56.030Z,13.43
2019-04-03T10:58:25.347Z,15.58
2019-04-03T11:00:54.773Z,14.03
2019-04-03T11:03:26.190Z,11.25
2019-04-03T11:05:55.379Z,14.05
2019-04-03T11:08:24.827Z,13.03
2019-04-03T11:10:54.191Z,13.00
2019-04-03T11:13:23.713Z,12.70
2019-04-03T11:15:52.966Z,12.45
2019-04-03T11:18:22.424Z,14.07
2019-04-03T11:20:51.589Z,11.10
2019-04-03T11:23:35.781Z,13.00
2019-04-03T11:25:51.635Z,13.93
2019-04-03T11:28:20.804Z,13.57
2019-04-03T11:30:52.712Z,14.23
2019-04-03T11:33:21.246Z,13.72
2019-04-03T11:35:54.029Z,15.68
2019-04-03T11:38:27.955Z,14.68
2019-04-03T11:40:55.033Z,12.78
2019-04-03T11:43:24.341Z,12.95
2019-04-03T11:45:53.713Z,14.73
2019-04-03T11:48:22.904Z,14.03
2019-04-03T11:50:52.215Z,13.37
2019-04-03T11:53:21.614Z,12.37
2019-04-03T11:55:51.042Z,14.55
2019-04-03T11:58:21.981Z,12.23
2019-04-03T12:00:52.231Z,12.73
2019-04-03T12:05:49.852Z,10.55
2019-04-03T12:08:19.590Z,11.35
2019-04-03T12:10:48.812Z,13.78
2019-04-03T12:13:20.660Z,14.63
2019-04-03T12:15:51.986Z,13.60
2019-04-03T12:18:19.640Z,13.05
2019-04-03T12:20:49.878Z,14.07
2019-04-03T12:23:20.279Z,14.00
2019-04-03T12:28:18.823Z,13.58
2019-04-03T12:30:48.293Z,13.58
2019-04-03T12:33:20.162Z,12.33
2019-04-03T12:35:48.429Z,12.53
2019-04-03T12:38:17.471Z,11.50
2019-04-03T12:40:46.971Z,15.28
2019-04-03T12:43:16.581Z,13.43
2019-04-03T12:45:45.806Z,13.85
2019-04-03T12:48:17.408Z,12.50
2019-04-03T12:50:45.953Z,12.37
2019-04-03T12:53:16.895Z,12.07
2019-04-03T12:55:45.924Z,14.25
2019-04-03T12:58:14.969Z,13.47
2019-04-03T13:00:46.137Z,12.27
2019-04-03T13:03:14.934Z,13.15
2019-04-03T13:05:44.266Z,13.73
2019-04-03T13:08:13.405Z,16.05
2019-04-03T13:10:45.293Z,13.67
2019-04-03T13:13:13.798Z,14.65
2019-04-03T13:15:43.357Z,16.20
2019-04-03T13:18:13.103Z,13.45
2019-04-03T13:20:43.048Z,14.83
2019-04-03T13:23:13.319Z,14.83
2019-04-03T13:25:43.291Z,15.80
2019-04-03T13:28:15.285Z,15.55
2019-04-03T13:30:44.846Z,14.55
2019-04-03T13:33:16.548Z,16.75
2019-04-03T13:35:50.793Z,13.95
2019-04-03T13:38:19.938Z,14.83
2019-04-03T13:40:49.340Z,14.07
2019-04-03T13:43:21.022Z,13.83
2019-04-03T13:45:49.314Z,15.65
2019-04-03T13:48:18.551Z,16.48
2019-04-03T13:50:47.908Z,17.55
2019-04-03T13:53:18.396Z,16.23
2019-04-03T13:55:50.209Z,16.77
2019-04-03T13:58:21.639Z,14.15
2019-04-03T14:00:58.975Z,15.15
2019-04-03T14:03:23.090Z,18.10
2019-04-03T14:08:21.309Z,15.38
2019-04-03T14:10:50.901Z,17.57
2019-04-03T14:13:20.442Z,14.60
2019-04-03T14:15:49.519Z,14.55
2019-04-03T14:18:18.974Z,16.10
2019-04-03T14:20:50.532Z,16.60
2019-04-03T14:23:19.264Z,16.05
2019-04-03T14:26:02.197Z,14.07
2019-04-03T14:28:21.234Z,17.57
2019-04-03T14:30:51.018Z,15.53
2019-04-03T14:33:20.393Z,14.25
2019-04-03T14:35:53.366Z,16.42
2019-04-03T14:38:20.508Z,15.08
2019-04-03T14:40:49.762Z,16.23
2019-04-03T14:43:18.969Z,14.63
2019-04-03T14:45:48.438Z,15.78
2019-04-03T14:48:20.632Z,16.52
2019-04-03T14:50:49.898Z,15.80
2019-04-03T14:53:23.796Z,17.77
2019-04-03T14:55:53.131Z,15.35
2019-04-03T14:58:25.701Z,14.50
2019-04-03T15:00:53.365Z,14.85
2019-04-03T15:03:22.801Z,13.20
2019-04-03T15:05:52.417Z,14.70
2019-04-03T15:08:22.826Z,15.53
2019-04-03T15:10:52.712Z,13.28
2019-04-03T15:13:22.177Z,14.33
2019-04-03T15:15:51.726Z,14.25
2019-04-03T15:18:21.356Z,14.23
2019-04-03T15:20:51.394Z,12.55
2019-04-03T15:23:20.931Z,12.80
2019-04-03T15:25:52.285Z,13.98
2019-04-03T15:28:21.292Z,14.63
2019-04-03T15:30:50.807Z,13.83
2019-04-03T15:33:23.247Z,14.28
2019-04-03T15:35:51.306Z,13.25
2019-04-03T15:38:20.965Z,12.25
2019-04-03T15:40:50.315Z,14.13
2019-04-03T15:43:19.540Z,15.08
2019-04-03T15:45:49.117Z,15.10
2019-04-03T15:48:20.889Z,11.80
2019-04-03T15:50:49.950Z,12.65
2019-04-03T15:55:48.039Z,11.90
2019-04-03T15:58:17.515Z,13.05
2019-04-03T16:00:47.104Z,11.88
2019-04-03T16:03:17.622Z,14.00
2019-04-03T16:05:47.375Z,11.33
2019-04-03T16:08:18.513Z,12.73
2019-04-03T16:10:47.784Z,12.30
2019-04-03T16:13:21.351Z,13.20
2019-04-03T16:15:50.059Z,13.43
2019-04-03T16:18:20.749Z,13.32
2019-04-03T16:20:50.781Z,11.03
2019-04-03T16:23:21.539Z,10.23
2019-04-03T16:25:50.770Z,13.48
2019-04-03T16:28:24.547Z,13.03
2019-04-03T16:30:54.487Z,14.28
2019-04-03T16:33:24.948Z,13.13
2019-04-03T16:35:54.447Z,13.60
2019-04-03T16:38:24.060Z,13.75
2019-04-03T16:40:53.436Z,13.48
2019-04-03T16:43:23.461Z,13.03
2019-04-03T16:45:53.683Z,13.70
2019-04-03T16:48:23.074Z,12.28
2019-04-03T16:50:52.453Z,14.58
2019-04-03T16:53:21.605Z,13.30
2019-04-03T16:55:50.867Z,15.53
2019-04-03T16:58:20.586Z,14.05
2019-04-03T17:00:53.661Z,14.05
2019-04-03T17:03:23.486Z,12.68
2019-04-03T17:05:53.137Z,12.53
2019-04-03T17:08:24.969Z,13.60
2019-04-03T17:10:54.059Z,14.25
2019-04-03T17:13:23.826Z,14.68
2019-04-03T17:15:53.694Z,12.98
2019-04-03T17:18:23.030Z,15.23
2019-04-03T17:20:53.194Z,13.75
2019-04-03T17:23:23.420Z,13.10
2019-04-03T17:25:55.210Z,13.88
2019-04-03T17:28:26.382Z,13.40
2019-04-03T17:30:55.459Z,12.05
2019-04-03T17:33:24.838Z,12.93
2019-04-03T17:35:54.550Z,13.38
2019-04-03T17:38:23.785Z,14.65
2019-04-03T17:40:53.135Z,14.53
2019-04-03T17:43:22.459Z,12.47
2019-04-03T17:45:52.056Z,14.07
2019-04-03T17:48:24.513Z,15.23
2019-04-03T17:50:53.243Z,14.03
2019-04-03T17:55:51.023Z,13.08
2019-04-03T17:58:20.109Z,14.20
2019-04-03T18:00:51.686Z,14.43
2019-04-03T18:03:20.244Z,13.90
2019-04-03T18:05:49.548Z,12.37
2019-04-03T18:08:19.167Z,15.20
2019-04-03T18:10:48.483Z,17.45
2019-04-03T18:13:18.009Z,14.35
2019-04-03T18:15:47.093Z,13.45
2019-04-03T18:18:16.587Z,13.60
2019-04-03T18:20:45.921Z,12.98
2019-04-03T18:23:15.185Z,14.55
2019-04-03T18:25:45.237Z,13.95
2019-04-03T18:28:14.432Z,15.20
2019-04-03T18:30:43.991Z,14.17
2019-04-03T18:33:16.594Z,12.58
2019-04-03T18:35:44.387Z,13.85
2019-04-03T18:38:13.661Z,15.47
2019-04-03T18:40:45.595Z,13.60
2019-04-03T18:43:13.977Z,15.75
2019-04-03T18:45:43.461Z,14.98
2019-04-03T18:48:12.701Z,14.78
2019-04-03T18:50:41.750Z,12.13
2019-04-03T18:53:12.329Z,13.43
2019-04-03T18:55:44.681Z,13.60
2019-04-03T18:58:12.121Z,15.80
2019-04-03T19:00:41.326Z,13.25
2019-04-03T19:03:10.525Z,15.90
2019-04-03T19:05:42.520Z,15.95
2019-04-03T19:08:13.301Z,15.90
2019-04-03T19:10:42.709Z,15.43
2019-04-03T19:13:13.741Z,18.13
2019-04-03T19:15:42.872Z,19.40
2019-04-03T19:18:19.384Z,39.13
2019-04-03T19:20:42.865Z,16.77
2019-04-03T19:23:11.986Z,16.87
2019-04-03T19:25:41.203Z,17.00
2019-04-03T19:28:10.406Z,16.40
2019-04-03T19:30:39.783Z,18.30
2019-04-03T19:33:09.050Z,16.97
2019-04-03T19:35:38.616Z,16.03
2019-04-03T19:38:08.000Z,16.75
2019-04-03T19:40:40.237Z,16.65
2019-04-03T19:43:08.167Z,17.80
2019-04-03T19:45:37.418Z,16.43
2019-04-03T19:48:06.613Z,19.13
2019-04-03T19:50:35.784Z,17.37
2019-04-03T19:53:07.777Z,18.45
2019-04-03T19:55:35.907Z,19.05
2019-04-03T19:58:05.221Z,17.10
2019-04-03T20:00:34.934Z,18.10
2019-04-03T20:05:32.894Z,17.92
2019-04-03T20:08:02.065Z,18.43
2019-04-03T20:10:33.499Z,19.23
2019-04-03T20:13:02.007Z,17.40
2019-04-03T20:15:31.501Z,19.17
2019-04-03T20:18:00.736Z,19.82
2019-04-03T20:20:33.349Z,20.17
2019-04-03T20:23:00.924Z,18.35
2019-04-03T20:25:30.136Z,18.03
2019-04-03T20:27:59.678Z,19.92
2019-04-03T20:30:29.080Z,17.90
2019-04-03T20:32:58.661Z,18.55
2019-04-03T20:35:28.185Z,20.70
2019-04-03T20:37:57.698Z,16.42
2019-04-03T20:40:27.331Z,18.62
2019-04-03T20:42:57.744Z,18.77
2019-04-03T20:45:26.954Z,19.73
2019-04-03T20:47:57.427Z,17.83
2019-04-03T20:50:27.081Z,17.48
2019-04-03T20:52:57.186Z,18.53
2019-04-03T20:57:57.937Z,17.90
2019-04-03T21:00:27.292Z,16.95
2019-04-03T21:02:56.599Z,18.25
2019-04-03T21:05:25.938Z,17.17
2019-04-03T21:07:55.844Z,15.15
2019-04-03T21:10:25.645Z,17.95
2019-04-03T21:12:55.147Z,17.07
2019-04-03T21:15:24.691Z,17.48
2019-04-03T21:17:54.058Z,16.82
2019-04-03T21:20:23.789Z,16.53
2019-04-03T21:22:53.985Z,16.17
2019-04-03T21:25:23.413Z,17.07
2019-04-03T21:27:53.669Z,16.50
2019-04-03T21:30:24.023Z,15.98
2019-04-03T21:32:54.352Z,17.70
2019-04-03T21:35:23.838Z,17.50
2019-04-03T21:37:53.176Z,16.48
2019-04-03T21:40:22.376Z,15.23
2019-04-03T21:42:51.700Z,18.15
2019-04-03T21:45:21.050Z,17.33
2019-04-03T21:47:50.242Z,16.85
2019-04-03T21:50:20.012Z,15.53
2019-04-03T21:52:49.388Z,18.20
2019-04-03T21:55:18.542Z,16.17
2019-04-03T21:57:47.641Z,16.57
2019-04-03T22:00:26.117Z,19.00
2019-04-03T22:02:55.489Z,16.27
2019-04-03T22:05:25.355Z,17.47
2019-04-03T22:07:54.477Z,17.55
2019-04-03T22:10:23.840Z,14.35
2019-04-03T22:12:53.008Z,15.65
2019-04-03T22:15:22.422Z,17.90
2019-04-03T22:17:52.604Z,15.60
2019-04-03T22:20:22.263Z,14.65
2019-04-03T22:22:51.378Z,15.38
2019-04-03T22:25:20.767Z,18.02
2019-04-03T22:27:50.067Z,16.90
2019-04-03T22:30:19.985Z,16.67
2019-04-03T22:32:50.243Z,16.77
2019-04-03T22:35:19.817Z,19.00
2019-04-03T22:37:49.060Z,16.25
2019-04-03T22:40:18.272Z,16.25
2019-04-03T22:42:47.546Z,13.93
2019-04-03T22:45:18.078Z,16.40
2019-04-03T22:47:47.736Z,14.00
2019-04-03T22:50:17.074Z,16.52
2019-04-03T22:52:46.478Z,15.40
2019-04-03T22:55:15.962Z,15.50
2019-04-03T22:57:45.276Z,15.58
2019-04-03T23:00:14.819Z,15.30
2019-04-03T23:02:44.161Z,15.13
2019-04-03T23:05:16.881Z,17.25
2019-04-03T23:07:44.650Z,15.08
2019-04-03T23:10:14.068Z,16.27
2019-04-03T23:12:43.512Z,15.75
2019-04-03T23:15:12.977Z,15.15
2019-04-03T23:17:44.892Z,14.53
2019-04-03T23:20:14.860Z,14.73
2019-04-03T23:22:44.124Z,15.85
2019-04-03T23:25:13.519Z,14.87
2019-04-03T23:27:46.089Z,14.20
2019-04-03T23:30:15.416Z,15.50
2019-04-03T23:32:46.167Z,18.03
2019-04-03T23:35:15.569Z,16.37
2019-04-03T23:37:45.091Z,14.70
2019-04-03T23:40:14.397Z,14.53
2019-04-03T23:42:43.848Z,14.93
2019-04-03T23:45:13.502Z,17.07
2019-04-03T23:47:42.844Z,17.73
2019-04-03T23:50:12.110Z,14.57
2019-04-03T23:52:41.402Z,13.60
2019-04-03T23:55:10.870Z,15.13
2019-04-03T23:57:40.536Z,12.90
